Time,TemperatureF,DewpointF,PressureIn,WindDirection,WindDirectionDegrees,WindSpeedMPH,WindSpeedGustMPH,Humidity,HourlyPrecipIn,Conditions,Clouds,dailyrainin,SoftwareType,DateUTC
2013-05-05 00:01:00,44.4,40.8,30.34,East,99,2.0,7.0,87,0.00,,,0.00,meteohub,2013-05-05 04:01:00,
2013-05-05 00:02:00,44.4,40.8,30.34,ESE,113,0.0,7.0,87,0.00,,,0.00,meteohub,2013-05-05 04:02:00,
2013-05-05 00:07:00,44.4,40.8,30.34,ENE,63,1.0,7.0,87,0.00,,,0.00,meteohub,2013-05-05 04:07:00,
2013-05-05 00:12:00,44.4,40.8,30.34,East,87,2.0,7.0,87,0.00,,,0.00,meteohub,2013-05-05 04:12:00,
2013-05-05 00:17:00,44.4,40.8,30.34,ESE,104,1.0,7.0,87,0.00,,,0.00,meteohub,2013-05-05 04:17:00,
2013-05-05 00:22:00,44.4,40.5,30.34,East,89,4.0,7.0,86,0.00,,,0.00,meteohub,2013-05-05 04:22:00,
2013-05-05 00:27:00,44.4,40.5,30.34,ENE,63,7.0,8.0,86,0.00,,,0.00,meteohub,2013-05-05 04:27:00,
2013-05-05 00:32:00,44.2,40.3,30.34,East,96,2.0,8.0,86,0.00,,,0.00,meteohub,2013-05-05 04:32:00,
2013-05-05 00:37:00,44.2,40.3,30.34,East,88,2.0,7.0,86,0.00,,,0.00,meteohub,2013-05-05 04:37:00,
2013-05-05 00:42:00,44.2,40.3,30.34,ENE,71,3.0,7.0,86,0.00,,,0.00,meteohub,2013-05-05 04:42:00,
2013-05-05 00:47:00,44.2,40.3,30.34,ESE,104,2.0,6.0,86,0.00,,,0.00,meteohub,2013-05-05 04:47:00,
2013-05-05 00:52:00,44.1,40.1,30.34,ESE,110,3.0,7.0,86,0.00,,,0.00,meteohub,2013-05-05 04:52:00,
2013-05-05 00:57:00,44.1,40.1,30.34,East,82,1.0,7.0,86,0.00,,,0.00,meteohub,2013-05-05 04:57:00,
2013-05-05 01:02:00,43.9,39.9,30.34,East,81,2.0,7.0,86,0.00,,,0.00,meteohub,2013-05-05 05:02:00,
2013-05-05 01:07:00,43.7,40.1,30.33,ESE,105,2.0,5.0,87,0.00,,,0.00,meteohub,2013-05-05 05:07:00,
2013-05-05 01:12:00,43.7,40.1,30.33,ENE,77,1.0,5.0,87,0.00,,,0.00,meteohub,2013-05-05 05:12:00,
2013-05-05 01:17:00,43.5,39.9,30.33,East,83,1.0,5.0,87,0.00,,,0.00,meteohub,2013-05-05 05:17:00,
2013-05-05 01:22:00,43.3,39.7,30.33,East,89,0.0,4.0,87,0.00,,,0.00,meteohub,2013-05-05 05:22:00,
2013-05-05 01:26:00,43.3,39.7,30.33,East,86,0.0,4.0,87,0.00,,,0.00,meteohub,2013-05-05 05:26:00,
2013-05-05 01:31:00,43.3,40.1,30.33,ENE,77,2.0,3.0,88,0.00,,,0.00,meteohub,2013-05-05 05:31:00,
2013-05-05 01:36:00,43.5,39.9,30.33,ENE,59,4.0,4.0,87,0.00,,,0.00,meteohub,2013-05-05 05:36:00,
2013-05-05 01:41:00,43.9,40.3,30.32,East,79,2.0,6.0,87,0.00,,,0.00,meteohub,2013-05-05 05:41:00,
2013-05-05 01:46:00,44.1,40.1,30.32,ENE,74,3.0,7.0,86,0.00,,,0.00,meteohub,2013-05-05 05:46:00,
2013-05-05 01:51:00,44.2,40.3,30.32,ENE,61,5.0,7.0,86,0.00,,,0.00,meteohub,2013-05-05 05:51:00,
2013-05-05 01:57:00,44.2,40.3,30.32,East,79,4.0,8.0,86,0.00,,,0.00,meteohub,2013-05-05 05:57:00,
2013-05-05 02:02:00,44.4,40.8,30.32,NW,323,4.0,8.0,87,0.00,,,0.00,meteohub,2013-05-05 06:02:00,
2013-05-05 02:07:00,44.4,40.8,30.32,ENE,72,6.0,9.0,87,0.00,,,0.00,meteohub,2013-05-05 06:07:00,
2013-05-05 02:11:00,44.4,40.8,30.32,East,101,4.0,10.0,87,0.00,,,0.00,meteohub,2013-05-05 06:11:00,
2013-05-05 02:17:00,44.4,41.2,30.32,NE,44,2.0,10.0,88,0.00,,,0.00,meteohub,2013-05-05 06:17:00,
2013-05-05 02:21:00,44.4,41.2,30.32,ENE,57,11.0,11.0,88,0.00,,,0.00,meteohub,2013-05-05 06:21:00,
2013-05-05 02:27:00,44.4,41.2,30.32,NE,53,2.0,12.0,88,0.00,,,0.00,meteohub,2013-05-05 06:27:00,
2013-05-05 02:32:00,44.4,40.8,30.32,ENE,62,5.0,12.0,87,0.00,,,0.00,meteohub,2013-05-05 06:32:00,
2013-05-05 02:37:00,44.2,40.6,30.32,East,84,7.0,12.0,87,0.00,,,0.00,meteohub,2013-05-05 06:37:00,
2013-05-05 02:42:00,44.2,40.6,30.32,East,84,3.0,11.0,87,0.00,,,0.00,meteohub,2013-05-05 06:42:00,
2013-05-05 02:47:00,44.2,40.6,30.32,ESE,102,3.0,11.0,87,0.00,,,0.00,meteohub,2013-05-05 06:47:00,
2013-05-05 02:52:00,44.1,40.5,30.31,NE,53,2.0,11.0,87,0.00,,,0.00,meteohub,2013-05-05 06:52:00,
2013-05-05 02:57:00,44.1,40.5,30.31,ENE,63,9.0,11.0,87,0.00,,,0.00,meteohub,2013-05-05 06:57:00,
2013-05-05 03:02:00,44.1,40.5,30.32,NE,48,5.0,12.0,87,0.00,,,0.00,meteohub,2013-05-05 07:02:00,
2013-05-05 03:07:00,44.1,40.8,30.32,NE,44,7.0,12.0,88,0.00,,,0.00,meteohub,2013-05-05 07:07:00,
2013-05-05 03:12:00,44.1,40.8,30.31,East,83,1.0,13.0,88,0.00,,,0.00,meteohub,2013-05-05 07:12:00,
2013-05-05 03:17:00,43.9,40.6,30.31,ENE,68,4.0,13.0,88,0.00,,,0.00,meteohub,2013-05-05 07:17:00,
2013-05-05 03:22:00,43.9,40.6,30.31,East,83,5.0,13.0,88,0.00,,,0.00,meteohub,2013-05-05 07:22:00,
2013-05-05 03:26:00,43.7,40.5,30.31,ENE,65,6.0,12.0,88,0.00,,,0.00,meteohub,2013-05-05 07:26:00,
2013-05-05 03:31:00,43.7,40.5,30.31,NE,53,4.0,12.0,88,0.00,,,0.00,meteohub,2013-05-05 07:31:00,
2013-05-05 03:37:00,43.5,40.3,30.31,NE,46,8.0,11.0,88,0.00,,,0.00,meteohub,2013-05-05 07:37:00,
2013-05-05 03:42:00,43.5,40.3,30.31,NE,48,5.0,11.0,88,0.00,,,0.00,meteohub,2013-05-05 07:42:00,
2013-05-05 03:47:00,43.5,40.3,30.31,NNE,16,1.0,12.0,88,0.00,,,0.00,meteohub,2013-05-05 07:47:00,
2013-05-05 03:52:00,43.3,40.3,30.31,NE,55,8.0,12.0,89,0.00,,,0.00,meteohub,2013-05-05 07:52:00,
2013-05-05 03:57:00,43.3,40.3,30.31,ENE,74,6.0,12.0,89,0.00,,,0.00,meteohub,2013-05-05 07:57:00,
2013-05-05 04:02:00,43.3,40.3,30.31,ENE,70,6.0,12.0,89,0.00,,,0.00,meteohub,2013-05-05 08:02:00,
2013-05-05 04:07:00,43.3,40.3,30.31,ENE,65,7.0,12.0,89,0.00,,,0.00,meteohub,2013-05-05 08:07:00,
2013-05-05 04:12:00,43.3,40.6,30.31,NE,37,5.0,12.0,90,0.00,,,0.00,meteohub,2013-05-05 08:12:00,
2013-05-05 04:17:00,43.2,40.5,30.31,NE,49,4.0,12.0,90,0.00,,,0.00,meteohub,2013-05-05 08:17:00,
2013-05-05 04:22:00,43.2,40.5,30.31,ENE,65,6.0,12.0,90,0.00,,,0.00,meteohub,2013-05-05 08:22:00,
2013-05-05 04:26:00,43.0,40.3,30.31,ENE,60,4.0,12.0,90,0.00,,,0.00,meteohub,2013-05-05 08:26:00,
2013-05-05 04:32:00,43.0,40.3,30.31,East,101,4.0,12.0,90,0.00,,,0.00,meteohub,2013-05-05 08:32:00,
2013-05-05 04:36:00,43.0,40.3,30.31,NE,49,8.0,11.0,90,0.00,,,0.00,meteohub,2013-05-05 08:36:00,
2013-05-05 04:42:00,43.0,40.3,30.31,ENE,64,4.0,9.0,90,0.00,,,0.00,meteohub,2013-05-05 08:42:00,
2013-05-05 04:47:00,43.0,40.5,30.31,NNE,19,3.0,12.0,91,0.00,,,0.00,meteohub,2013-05-05 08:47:00,
2013-05-05 04:52:00,43.2,40.6,30.31,NE,41,4.0,12.0,91,0.00,,,0.00,meteohub,2013-05-05 08:52:00,
2013-05-05 04:57:00,43.3,40.8,30.31,NNE,30,3.0,12.0,91,0.00,,,0.00,meteohub,2013-05-05 08:57:00,
2013-05-05 05:02:00,43.3,40.8,30.31,ENE,61,7.0,10.0,91,0.00,,,0.00,meteohub,2013-05-05 09:02:00,
2013-05-05 05:07:00,43.3,40.8,30.31,ENE,58,6.0,10.0,91,0.00,,,0.00,meteohub,2013-05-05 09:07:00,
2013-05-05 05:12:00,43.3,40.8,30.31,ESE,105,5.0,9.0,91,0.00,,,0.00,meteohub,2013-05-05 09:12:00,
2013-05-05 05:16:00,43.0,40.3,30.31,NE,54,6.0,12.0,90,0.00,,,0.00,meteohub,2013-05-05 09:16:00,
2013-05-05 05:21:00,43.0,40.3,30.31,ENE,75,4.0,12.0,90,0.00,,,0.00,meteohub,2013-05-05 09:21:00,
2013-05-05 05:27:00,43.0,40.3,30.31,ENE,59,4.0,13.0,90,0.00,,,0.00,meteohub,2013-05-05 09:27:00,
2013-05-05 05:32:00,42.8,40.1,30.31,NE,41,6.0,14.0,90,0.00,,,0.00,meteohub,2013-05-05 09:32:00,
2013-05-05 05:37:00,42.6,40.1,30.31,ENE,68,7.0,14.0,91,0.00,,,0.00,meteohub,2013-05-05 09:37:00,
2013-05-05 05:42:00,42.6,40.1,30.31,NE,41,10.0,14.0,91,0.00,,,0.00,meteohub,2013-05-05 09:42:00,
2013-05-05 05:47:00,42.8,40.3,30.31,ENE,63,5.0,12.0,91,0.00,,,0.00,meteohub,2013-05-05 09:47:00,
2013-05-05 05:52:00,42.8,40.3,30.32,NNE,14,3.0,12.0,91,0.00,,,0.00,meteohub,2013-05-05 09:52:00,
2013-05-05 05:57:00,43.2,41.0,30.31,East,92,6.0,12.0,92,0.00,,,0.00,meteohub,2013-05-05 09:57:00,
2013-05-05 06:02:00,43.3,41.2,30.31,ENE,68,4.0,11.0,92,0.00,,,0.00,meteohub,2013-05-05 10:02:00,
2013-05-05 06:07:00,43.3,41.2,30.32,NE,49,9.0,11.0,92,0.00,,,0.00,meteohub,2013-05-05 10:07:00,
2013-05-05 06:12:00,43.5,41.4,30.32,NNE,13,6.0,11.0,92,0.00,,,0.00,meteohub,2013-05-05 10:12:00,
2013-05-05 06:17:00,43.5,41.4,30.32,NNE,21,5.0,11.0,92,0.00,,,0.00,meteohub,2013-05-05 10:17:00,
2013-05-05 06:22:00,43.5,41.4,30.32,East,83,4.0,12.0,92,0.00,,,0.00,meteohub,2013-05-05 10:22:00,
2013-05-05 06:27:00,43.5,41.4,30.32,NE,55,7.0,12.0,92,0.00,,,0.00,meteohub,2013-05-05 10:27:00,
2013-05-05 06:32:00,43.9,41.4,30.32,NE,42,6.0,13.0,91,0.00,,,0.00,meteohub,2013-05-05 10:32:00,
2013-05-05 06:36:00,44.1,41.5,30.32,East,83,2.0,13.0,91,0.00,,,0.00,meteohub,2013-05-05 10:36:00,
2013-05-05 06:41:00,43.9,41.4,30.32,NE,54,4.0,13.0,91,0.00,,,0.00,meteohub,2013-05-05 10:41:00,
2013-05-05 06:47:00,43.9,41.4,30.32,NE,53,5.0,11.0,91,0.00,,,0.00,meteohub,2013-05-05 10:47:00,
2013-05-05 06:52:00,43.9,41.4,30.32,NE,53,9.0,11.0,91,0.00,,,0.00,meteohub,2013-05-05 10:52:00,
2013-05-05 06:57:00,43.9,41.2,30.32,NE,40,4.0,11.0,90,0.00,,,0.00,meteohub,2013-05-05 10:57:00,
2013-05-05 07:02:00,44.1,41.5,30.32,ENE,62,2.0,11.0,91,0.00,,,0.00,meteohub,2013-05-05 11:02:00,
2013-05-05 07:07:00,44.2,41.5,30.33,NE,46,3.0,11.0,90,0.00,,,0.00,meteohub,2013-05-05 11:07:00,
2013-05-05 07:11:00,44.4,41.7,30.33,NE,50,4.0,12.0,90,0.00,,,0.00,meteohub,2013-05-05 11:11:00,
2013-05-05 07:17:00,44.6,41.5,30.33,NE,47,9.0,12.0,89,0.00,,,0.00,meteohub,2013-05-05 11:17:00,
2013-05-05 07:22:00,44.8,41.7,30.33,NE,47,4.0,15.0,89,0.00,,,0.00,meteohub,2013-05-05 11:22:00,
2013-05-05 07:27:00,44.8,41.7,30.33,NE,44,9.0,15.0,89,0.00,,,0.00,meteohub,2013-05-05 11:27:00,
2013-05-05 07:32:00,44.6,41.5,30.33,ENE,75,10.0,14.0,89,0.00,,,0.00,meteohub,2013-05-05 11:32:00,
2013-05-05 07:37:00,44.2,41.2,30.33,NE,52,6.0,13.0,89,0.00,,,0.00,meteohub,2013-05-05 11:37:00,
2013-05-05 07:42:00,44.2,41.5,30.33,ENE,72,5.0,13.0,90,0.00,,,0.00,meteohub,2013-05-05 11:42:00,
2013-05-05 07:47:00,44.4,41.7,30.33,NNE,28,5.0,13.0,90,0.00,,,0.00,meteohub,2013-05-05 11:47:00,
2013-05-05 07:52:00,44.6,41.9,30.33,ESE,111,3.0,13.0,90,0.00,,,0.00,meteohub,2013-05-05 11:52:00,
2013-05-05 07:57:00,44.8,42.1,30.33,NE,47,6.0,12.0,90,0.00,,,0.00,meteohub,2013-05-05 11:57:00,
2013-05-05 08:02:00,45.0,42.3,30.33,East,84,1.0,12.0,90,0.00,,,0.00,meteohub,2013-05-05 12:02:00,
2013-05-05 08:06:00,45.1,42.4,30.33,ESE,121,3.0,11.0,90,0.00,,,0.00,meteohub,2013-05-05 12:06:00,
2013-05-05 08:11:00,45.3,42.3,30.33,ESE,103,3.0,10.0,89,0.00,,,0.00,meteohub,2013-05-05 12:11:00,
2013-05-05 08:16:00,45.5,42.1,30.33,NNE,16,4.0,10.0,88,0.00,,,0.00,meteohub,2013-05-05 12:16:00,
2013-05-05 08:21:00,45.9,42.4,30.33,East,82,5.0,13.0,88,0.00,,,0.00,meteohub,2013-05-05 12:21:00,
2013-05-05 08:26:00,45.9,42.3,30.33,SSE,155,2.0,13.0,87,0.00,,,0.00,meteohub,2013-05-05 12:26:00,
2013-05-05 08:32:00,46.2,42.6,30.33,NE,44,1.0,9.0,87,0.00,,,0.00,meteohub,2013-05-05 12:32:00,
2013-05-05 08:37:00,46.8,43.2,30.33,ENE,75,4.0,9.0,87,0.00,,,0.00,meteohub,2013-05-05 12:37:00,
2013-05-05 08:42:00,47.1,43.2,30.33,East,94,8.0,9.0,86,0.00,,,0.00,meteohub,2013-05-05 12:42:00,
2013-05-05 08:47:00,46.9,43.0,30.34,North,4,4.0,9.0,86,0.00,,,0.00,meteohub,2013-05-05 12:47:00,
2013-05-05 08:52:00,46.6,43.0,30.34,ENE,58,8.0,10.0,87,0.00,,,0.00,meteohub,2013-05-05 12:52:00,
2013-05-05 08:57:00,46.6,43.2,30.34,NE,54,5.0,11.0,88,0.00,,,0.00,meteohub,2013-05-05 12:57:00,
2013-05-05 09:02:00,46.6,43.2,30.34,East,86,4.0,11.0,88,0.00,,,0.00,meteohub,2013-05-05 13:02:00,
2013-05-05 09:07:00,47.1,43.7,30.34,East,88,2.0,11.0,88,0.00,,,0.00,meteohub,2013-05-05 13:07:00,
2013-05-05 09:12:00,47.5,43.5,30.34,ESE,120,1.0,10.0,86,0.00,,,0.00,meteohub,2013-05-05 13:12:00,
2013-05-05 09:17:00,47.8,43.5,30.34,NE,48,3.0,10.0,85,0.00,,,0.00,meteohub,2013-05-05 13:17:00,
2013-05-05 09:22:00,48.4,43.5,30.34,ENE,76,8.0,12.0,83,0.00,,,0.00,meteohub,2013-05-05 13:22:00,
2013-05-05 09:27:00,48.4,43.5,30.34,East,84,4.0,12.0,83,0.00,,,0.00,meteohub,2013-05-05 13:27:00,
2013-05-05 09:32:00,48.7,43.5,30.34,ESE,110,7.0,12.0,82,0.00,,,0.00,meteohub,2013-05-05 13:32:00,
2013-05-05 09:37:00,49.1,43.9,30.34,NE,56,4.0,12.0,82,0.00,,,0.00,meteohub,2013-05-05 13:37:00,
2013-05-05 09:42:00,49.3,43.7,30.34,ENE,78,5.0,12.0,81,0.00,,,0.00,meteohub,2013-05-05 13:42:00,
2013-05-05 09:46:00,49.3,43.3,30.34,ENE,65,7.0,13.0,80,0.00,,,0.00,meteohub,2013-05-05 13:46:00,
2013-05-05 09:52:00,50.2,44.2,30.34,NNE,23,4.0,13.0,80,0.00,,,0.00,meteohub,2013-05-05 13:52:00,
2013-05-05 09:56:00,50.4,43.3,30.34,East,92,7.0,12.0,77,0.00,,,0.00,meteohub,2013-05-05 13:56:00,
2013-05-05 10:02:00,50.2,43.5,30.34,ENE,58,1.0,12.0,78,0.00,,,0.00,meteohub,2013-05-05 14:02:00,
2013-05-05 10:06:00,50.2,43.9,30.33,ESE,108,7.0,12.0,79,0.00,,,0.00,meteohub,2013-05-05 14:06:00,
2013-05-05 10:12:00,51.3,44.6,30.33,ENE,62,6.0,14.0,78,0.00,,,0.00,meteohub,2013-05-05 14:12:00,
2013-05-05 10:16:00,52.0,45.3,30.34,ENE,78,4.0,14.0,78,0.00,,,0.00,meteohub,2013-05-05 14:16:00,
2013-05-05 10:21:00,51.4,44.4,30.34,NNE,19,5.0,14.0,77,0.00,,,0.00,meteohub,2013-05-05 14:21:00,
2013-05-05 10:27:00,51.3,44.2,30.34,East,79,5.0,10.0,77,0.00,,,0.00,meteohub,2013-05-05 14:27:00,
2013-05-05 10:31:00,51.4,44.1,30.34,ESE,115,7.0,12.0,76,0.00,,,0.00,meteohub,2013-05-05 14:31:00,
2013-05-05 10:36:00,51.6,44.2,30.34,NE,46,10.0,12.0,76,0.00,,,0.00,meteohub,2013-05-05 14:36:00,
2013-05-05 10:41:00,51.4,43.7,30.34,ESE,108,4.0,16.0,75,0.00,,,0.00,meteohub,2013-05-05 14:41:00,
2013-05-05 10:47:00,51.4,44.1,30.34,NE,45,6.0,16.0,76,0.00,,,0.00,meteohub,2013-05-05 14:47:00,
2013-05-05 10:52:00,51.6,44.2,30.34,ESE,105,7.0,16.0,76,0.00,,,0.00,meteohub,2013-05-05 14:52:00,
2013-05-05 10:56:00,51.6,43.5,30.34,NE,53,3.0,15.0,74,0.00,,,0.00,meteohub,2013-05-05 14:56:00,
2013-05-05 11:01:00,51.6,43.3,30.34,NE,43,6.0,15.0,73,0.00,,,0.00,meteohub,2013-05-05 15:01:00,
2013-05-05 11:06:00,51.3,43.0,30.34,ENE,65,7.0,14.0,73,0.00,,,0.00,meteohub,2013-05-05 15:06:00,
2013-05-05 11:12:00,51.8,43.0,30.34,NNW,342,6.0,14.0,72,0.00,,,0.00,meteohub,2013-05-05 15:12:00,
2013-05-05 11:17:00,51.8,43.7,30.34,NNW,341,2.0,17.0,74,0.00,,,0.00,meteohub,2013-05-05 15:17:00,
2013-05-05 11:22:00,52.2,43.3,30.34,ENE,77,5.0,17.0,72,0.00,,,0.00,meteohub,2013-05-05 15:22:00,
2013-05-05 11:26:00,53.4,44.2,30.34,ENE,63,9.0,17.0,71,0.00,,,0.00,meteohub,2013-05-05 15:26:00,
2013-05-05 11:31:00,53.1,43.2,30.34,NE,37,6.0,17.0,69,0.00,,,0.00,meteohub,2013-05-05 15:31:00,
2013-05-05 11:36:00,53.6,44.4,30.34,ENE,75,5.0,17.0,71,0.00,,,0.00,meteohub,2013-05-05 15:36:00,
2013-05-05 11:41:00,53.8,44.2,30.33,NNW,348,3.0,17.0,70,0.00,,,0.00,meteohub,2013-05-05 15:41:00,
2013-05-05 11:46:00,53.4,43.9,30.33,ENE,68,8.0,16.0,70,0.00,,,0.00,meteohub,2013-05-05 15:46:00,
2013-05-05 11:51:00,53.2,44.4,30.33,NE,45,3.0,13.0,72,0.00,,,0.00,meteohub,2013-05-05 15:51:00,
2013-05-05 11:56:00,54.0,44.1,30.33,ENE,62,6.0,15.0,69,0.00,,,0.00,meteohub,2013-05-05 15:56:00,
2013-05-05 12:01:00,54.9,45.3,30.33,ENE,63,6.0,15.0,70,0.00,,,0.00,meteohub,2013-05-05 16:01:00,
2013-05-05 12:06:00,55.2,44.4,30.33,East,98,5.0,15.0,67,0.00,,,0.00,meteohub,2013-05-05 16:06:00,
2013-05-05 12:11:00,54.9,44.1,30.32,East,85,7.0,16.0,67,0.00,,,0.00,meteohub,2013-05-05 16:11:00,
2013-05-05 12:16:00,55.0,44.2,30.32,SE,131,4.0,16.0,67,0.00,,,0.00,meteohub,2013-05-05 16:16:00,
2013-05-05 12:21:00,55.6,44.4,30.32,ESE,108,11.0,16.0,66,0.00,,,0.00,meteohub,2013-05-05 16:21:00,
2013-05-05 12:26:00,55.4,44.2,30.32,SE,124,3.0,14.0,66,0.00,,,0.00,meteohub,2013-05-05 16:26:00,
2013-05-05 12:31:00,55.8,44.6,30.32,North,4,3.0,14.0,66,0.00,,,0.00,meteohub,2013-05-05 16:31:00,
2013-05-05 12:36:00,56.5,44.1,30.31,SE,127,5.0,13.0,63,0.00,,,0.00,meteohub,2013-05-05 16:36:00,
2013-05-05 12:41:00,56.5,44.1,30.32,SSE,152,9.0,13.0,63,0.00,,,0.00,meteohub,2013-05-05 16:41:00,
2013-05-05 12:46:00,56.5,44.8,30.31,East,83,5.0,13.0,65,0.00,,,0.00,meteohub,2013-05-05 16:46:00,
2013-05-05 12:51:00,57.0,45.0,30.32,South,177,2.0,13.0,64,0.00,,,0.00,meteohub,2013-05-05 16:51:00,
2013-05-05 12:56:00,57.2,45.1,30.31,SSE,161,6.0,12.0,64,0.00,,,0.00,meteohub,2013-05-05 16:56:00,
2013-05-05 13:02:00,57.4,44.4,30.31,SSE,152,5.0,16.0,62,0.00,,,0.00,meteohub,2013-05-05 17:02:00,
2013-05-05 13:07:00,56.8,44.4,30.31,NNW,333,2.0,16.0,63,0.00,,,0.00,meteohub,2013-05-05 17:07:00,
2013-05-05 13:12:00,56.8,44.8,30.31,ENE,63,4.0,13.0,64,0.00,,,0.00,meteohub,2013-05-05 17:12:00,
2013-05-05 13:17:00,57.4,45.7,30.31,ESE,113,5.0,12.0,65,0.00,,,0.00,meteohub,2013-05-05 17:17:00,
2013-05-05 13:22:00,57.6,45.1,30.31,ENE,75,5.0,12.0,63,0.00,,,0.00,meteohub,2013-05-05 17:22:00,
2013-05-05 13:27:00,57.9,45.3,30.31,East,90,6.0,12.0,63,0.00,,,0.00,meteohub,2013-05-05 17:27:00,
2013-05-05 13:32:00,58.5,45.1,30.31,SE,133,6.0,10.0,61,0.00,,,0.00,meteohub,2013-05-05 17:32:00,
2013-05-05 13:37:00,57.9,45.0,30.31,ENE,66,2.0,10.0,62,0.00,,,0.00,meteohub,2013-05-05 17:37:00,
2013-05-05 13:42:00,58.5,45.1,30.31,ESE,115,3.0,11.0,61,0.00,,,0.00,meteohub,2013-05-05 17:42:00,
2013-05-05 13:47:00,58.5,45.5,30.30,SE,133,7.0,13.0,62,0.00,,,0.00,meteohub,2013-05-05 17:47:00,
2013-05-05 13:51:00,57.9,45.0,30.30,SE,141,3.0,13.0,62,0.00,,,0.00,meteohub,2013-05-05 17:51:00,
2013-05-05 13:56:00,58.3,45.3,30.30,ENE,77,3.0,12.0,62,0.00,,,0.00,meteohub,2013-05-05 17:56:00,
2013-05-05 14:01:00,58.3,45.0,30.30,East,91,6.0,12.0,61,0.00,,,0.00,meteohub,2013-05-05 18:01:00,
2013-05-05 14:06:00,58.8,45.3,30.30,ESE,103,5.0,12.0,61,0.00,,,0.00,meteohub,2013-05-05 18:06:00,
2013-05-05 14:11:00,58.6,44.8,30.30,ENE,75,4.0,12.0,60,0.00,,,0.00,meteohub,2013-05-05 18:11:00,
2013-05-05 14:16:00,58.6,45.3,30.30,East,84,9.0,11.0,61,0.00,,,0.00,meteohub,2013-05-05 18:16:00,
2013-05-05 14:21:00,59.2,46.2,30.30,SE,134,3.0,12.0,62,0.00,,,0.00,meteohub,2013-05-05 18:21:00,
2013-05-05 14:26:00,59.5,45.1,30.30,East,91,7.0,12.0,59,0.00,,,0.00,meteohub,2013-05-05 18:26:00,
2013-05-05 14:31:00,59.4,45.0,30.30,East,94,4.0,12.0,59,0.00,,,0.00,meteohub,2013-05-05 18:31:00,
2013-05-05 14:36:00,59.5,46.0,30.29,ESE,110,1.0,10.0,61,0.00,,,0.00,meteohub,2013-05-05 18:36:00,
2013-05-05 14:41:00,60.1,46.9,30.29,ESE,122,10.0,12.0,62,0.00,,,0.00,meteohub,2013-05-05 18:41:00,
2013-05-05 14:47:00,59.7,46.2,30.29,East,94,1.0,12.0,61,0.00,,,0.00,meteohub,2013-05-05 18:47:00,
2013-05-05 14:52:00,60.1,46.2,30.29,ESE,104,6.0,12.0,60,0.00,,,0.00,meteohub,2013-05-05 18:52:00,
2013-05-05 14:57:00,60.1,45.7,30.29,East,84,4.0,10.0,59,0.00,,,0.00,meteohub,2013-05-05 18:57:00,
2013-05-05 15:01:00,59.9,45.5,30.29,SE,131,9.0,13.0,59,0.00,,,0.00,meteohub,2013-05-05 19:01:00,
2013-05-05 15:07:00,59.7,45.9,30.29,South,181,6.0,13.0,60,0.00,,,0.00,meteohub,2013-05-05 19:07:00,
2013-05-05 15:12:00,59.5,45.7,30.29,ESE,117,6.0,13.0,60,0.00,,,0.00,meteohub,2013-05-05 19:12:00,
2013-05-05 15:17:00,59.5,45.7,30.29,ESE,108,6.0,12.0,60,0.00,,,0.00,meteohub,2013-05-05 19:17:00,
2013-05-05 15:21:00,59.5,45.1,30.29,SE,141,4.0,12.0,59,0.00,,,0.00,meteohub,2013-05-05 19:21:00,
2013-05-05 15:26:00,59.9,46.8,30.29,SE,126,2.0,12.0,62,0.00,,,0.00,meteohub,2013-05-05 19:26:00,
2013-05-05 15:32:00,59.5,46.9,30.29,SE,139,7.0,12.0,63,0.00,,,0.00,meteohub,2013-05-05 19:32:00,
2013-05-05 15:37:00,59.5,46.6,30.28,ESE,115,7.0,13.0,62,0.00,,,0.00,meteohub,2013-05-05 19:37:00,
2013-05-05 15:42:00,59.4,46.4,30.28,SW,217,3.0,13.0,62,0.00,,,0.00,meteohub,2013-05-05 19:42:00,
2013-05-05 15:47:00,59.7,47.1,30.29,ESE,122,4.0,9.0,63,0.00,,,0.00,meteohub,2013-05-05 19:47:00,
2013-05-05 15:52:00,59.4,47.1,30.29,ESE,103,6.0,12.0,64,0.00,,,0.00,meteohub,2013-05-05 19:52:00,
2013-05-05 15:56:00,59.4,46.4,30.29,South,177,2.0,12.0,62,0.00,,,0.00,meteohub,2013-05-05 19:56:00,
2013-05-05 16:01:00,58.6,45.3,30.29,East,86,4.0,12.0,61,0.00,,,0.00,meteohub,2013-05-05 20:01:00,
2013-05-05 16:07:00,58.5,45.9,30.28,East,92,2.0,10.0,63,0.00,,,0.00,meteohub,2013-05-05 20:07:00,
2013-05-05 16:12:00,58.3,45.7,30.29,ESE,106,5.0,11.0,63,0.00,,,0.00,meteohub,2013-05-05 20:12:00,
2013-05-05 16:17:00,58.6,46.6,30.28,East,89,2.0,11.0,64,0.00,,,0.00,meteohub,2013-05-05 20:17:00,
2013-05-05 16:22:00,58.3,45.7,30.28,ESE,105,2.0,11.0,63,0.00,,,0.00,meteohub,2013-05-05 20:22:00,
2013-05-05 16:27:00,58.3,46.2,30.28,SSE,162,1.0,12.0,64,0.00,,,0.00,meteohub,2013-05-05 20:27:00,
2013-05-05 16:32:00,58.1,45.5,30.28,East,99,2.0,12.0,63,0.00,,,0.00,meteohub,2013-05-05 20:32:00,
2013-05-05 16:37:00,57.6,45.5,30.28,NW,314,6.0,11.0,64,0.00,,,0.00,meteohub,2013-05-05 20:37:00,
2013-05-05 16:42:00,57.0,45.0,30.28,East,86,1.0,11.0,64,0.00,,,0.00,meteohub,2013-05-05 20:42:00,
2013-05-05 16:47:00,57.0,45.0,30.28,ENE,72,7.0,11.0,64,0.00,,,0.00,meteohub,2013-05-05 20:47:00,
2013-05-05 16:52:00,57.2,45.9,30.28,SE,126,4.0,13.0,66,0.00,,,0.00,meteohub,2013-05-05 20:52:00,
2013-05-05 16:57:00,57.4,45.7,30.28,SE,142,4.0,13.0,65,0.00,,,0.00,meteohub,2013-05-05 20:57:00,
2013-05-05 17:02:00,57.0,45.3,30.28,ESE,113,4.0,13.0,65,0.00,,,0.00,meteohub,2013-05-05 21:02:00,
2013-05-05 17:07:00,57.0,45.9,30.28,SE,136,5.0,10.0,66,0.00,,,0.00,meteohub,2013-05-05 21:07:00,
2013-05-05 17:12:00,56.8,45.7,30.28,SSW,205,6.0,12.0,66,0.00,,,0.00,meteohub,2013-05-05 21:12:00,
2013-05-05 17:17:00,56.5,45.3,30.28,SE,141,2.0,12.0,66,0.00,,,0.00,meteohub,2013-05-05 21:17:00,
2013-05-05 17:22:00,56.5,45.3,30.28,SW,232,2.0,12.0,66,0.00,,,0.00,meteohub,2013-05-05 21:22:00,
2013-05-05 17:27:00,56.7,45.9,30.28,ENE,73,2.0,9.0,67,0.00,,,0.00,meteohub,2013-05-05 21:27:00,
2013-05-05 17:32:00,57.0,45.9,30.28,SSW,212,5.0,7.0,66,0.00,,,0.00,meteohub,2013-05-05 21:32:00,
2013-05-05 17:37:00,56.5,44.8,30.29,SSE,150,5.0,8.0,65,0.00,,,0.00,meteohub,2013-05-05 21:37:00,
2013-05-05 17:41:00,55.9,44.8,30.28,East,96,6.0,8.0,66,0.00,,,0.00,meteohub,2013-05-05 21:41:00,
2013-05-05 17:46:00,55.9,45.5,30.29,South,184,0.0,10.0,68,0.00,,,0.00,meteohub,2013-05-05 21:46:00,
2013-05-05 17:51:00,56.1,45.3,30.29,SSE,162,2.0,10.0,67,0.00,,,0.00,meteohub,2013-05-05 21:51:00,
2013-05-05 17:56:00,55.9,45.1,30.29,SSE,166,5.0,8.0,67,0.00,,,0.00,meteohub,2013-05-05 21:56:00,
2013-05-05 18:01:00,55.6,45.5,30.29,SSE,166,3.0,8.0,69,0.00,,,0.00,meteohub,2013-05-05 22:01:00,
2013-05-05 18:06:00,55.2,45.1,30.28,SSE,152,3.0,10.0,69,0.00,,,0.00,meteohub,2013-05-05 22:06:00,
2013-05-05 18:11:00,55.0,45.5,30.29,SSE,158,4.0,10.0,70,0.00,,,0.00,meteohub,2013-05-05 22:11:00,
2013-05-05 18:16:00,55.0,45.5,30.28,SE,135,5.0,10.0,70,0.00,,,0.00,meteohub,2013-05-05 22:16:00,
2013-05-05 18:21:00,55.0,45.9,30.28,SSE,160,1.0,9.0,71,0.00,,,0.00,meteohub,2013-05-05 22:21:00,
2013-05-05 18:26:00,54.5,45.0,30.28,SW,222,4.0,9.0,70,0.00,,,0.00,meteohub,2013-05-05 22:26:00,
2013-05-05 18:31:00,54.0,45.1,30.28,ENE,57,5.0,9.0,72,0.00,,,0.00,meteohub,2013-05-05 22:31:00,
2013-05-05 18:36:00,53.8,45.0,30.28,SW,219,6.0,9.0,72,0.00,,,0.00,meteohub,2013-05-05 22:36:00,
2013-05-05 18:41:00,53.6,45.1,30.28,ESE,119,2.0,8.0,73,0.00,,,0.00,meteohub,2013-05-05 22:41:00,
2013-05-05 18:46:00,53.4,45.0,30.28,SE,146,1.0,8.0,73,0.00,,,0.00,meteohub,2013-05-05 22:46:00,
2013-05-05 18:51:00,53.1,45.0,30.28,SE,142,3.0,8.0,74,0.00,,,0.00,meteohub,2013-05-05 22:51:00,
2013-05-05 18:56:00,53.1,45.0,30.28,SSE,155,2.0,7.0,74,0.00,,,0.00,meteohub,2013-05-05 22:56:00,
2013-05-05 19:01:00,52.9,45.1,30.28,ESE,113,0.0,7.0,75,0.00,,,0.00,meteohub,2013-05-05 23:01:00,
2013-05-05 19:06:00,52.9,45.1,30.28,East,101,1.0,6.0,75,0.00,,,0.00,meteohub,2013-05-05 23:06:00,
2013-05-05 19:11:00,52.5,44.8,30.28,SE,132,1.0,6.0,75,0.00,,,0.00,meteohub,2013-05-05 23:11:00,
2013-05-05 19:16:00,52.2,44.4,30.29,ESE,117,4.0,5.0,75,0.00,,,0.00,meteohub,2013-05-05 23:16:00,
2013-05-05 19:21:00,51.6,44.2,30.29,SE,124,1.0,8.0,76,0.00,,,0.00,meteohub,2013-05-05 23:21:00,
2013-05-05 19:26:00,51.1,44.1,30.29,SE,141,4.0,8.0,77,0.00,,,0.00,meteohub,2013-05-05 23:26:00,
2013-05-05 19:31:00,50.5,43.9,30.29,SE,135,1.0,8.0,78,0.00,,,0.00,meteohub,2013-05-05 23:31:00,
2013-05-05 19:36:00,50.2,43.5,30.29,SSE,148,4.0,7.0,78,0.00,,,0.00,meteohub,2013-05-05 23:36:00,
2013-05-05 19:41:00,49.6,43.7,30.29,SE,140,1.0,6.0,80,0.00,,,0.00,meteohub,2013-05-05 23:41:00,
2013-05-05 19:46:00,49.3,43.7,30.29,SSE,156,1.0,5.0,81,0.00,,,0.00,meteohub,2013-05-05 23:46:00,
2013-05-05 19:51:00,48.7,43.2,30.29,ESE,122,2.0,5.0,81,0.00,,,0.00,meteohub,2013-05-05 23:51:00,
2013-05-05 19:56:00,48.4,43.5,30.29,ESE,115,1.0,5.0,83,0.00,,,0.00,meteohub,2013-05-05 23:56:00,
2013-05-05 20:01:00,48.0,43.3,30.29,SE,124,1.0,4.0,84,0.00,,,0.00,meteohub,2013-05-06 00:01:00,
2013-05-05 20:06:00,47.8,43.2,30.29,ESE,120,0.0,4.0,84,0.00,,,0.00,meteohub,2013-05-06 00:06:00,
2013-05-05 20:11:00,47.7,43.3,30.30,SE,135,1.0,5.0,85,0.00,,,0.00,meteohub,2013-05-06 00:11:00,
2013-05-05 20:16:00,47.5,43.5,30.30,ESE,106,2.0,5.0,86,0.00,,,0.00,meteohub,2013-05-06 00:16:00,
2013-05-05 20:21:00,47.1,43.2,30.30,ESE,117,2.0,5.0,86,0.00,,,0.00,meteohub,2013-05-06 00:21:00,
2013-05-05 20:26:00,46.9,43.3,30.30,ENE,77,2.0,5.0,87,0.00,,,0.00,meteohub,2013-05-06 00:26:00,
2013-05-05 20:31:00,46.8,43.2,30.30,ESE,108,3.0,6.0,87,0.00,,,0.00,meteohub,2013-05-06 00:31:00,
2013-05-05 20:36:00,46.6,43.2,30.30,SE,136,2.0,6.0,88,0.00,,,0.00,meteohub,2013-05-06 00:36:00,
2013-05-05 20:41:00,46.4,43.3,30.30,SSE,150,1.0,6.0,89,0.00,,,0.00,meteohub,2013-05-06 00:41:00,
2013-05-05 20:46:00,46.2,43.2,30.30,ESE,117,1.0,4.0,89,0.00,,,0.00,meteohub,2013-05-06 00:46:00,
2013-05-05 20:51:00,46.0,43.0,30.30,SE,129,0.0,4.0,89,0.00,,,0.00,meteohub,2013-05-06 00:51:00,
2013-05-05 20:56:00,45.9,43.2,30.30,SE,135,0.0,3.0,90,0.00,,,0.00,meteohub,2013-05-06 00:56:00,
2013-05-05 21:01:00,45.9,43.2,30.30,East,88,0.0,3.0,90,0.00,,,0.00,meteohub,2013-05-06 01:01:00,
2013-05-05 21:06:00,45.7,43.2,30.30,SE,131,2.0,2.0,91,0.00,,,0.00,meteohub,2013-05-06 01:06:00,
2013-05-05 21:11:00,45.3,42.8,30.31,East,85,0.0,2.0,91,0.00,,,0.00,meteohub,2013-05-06 01:11:00,
2013-05-05 21:16:00,45.1,42.6,30.31,East,84,0.0,2.0,91,0.00,,,0.00,meteohub,2013-05-06 01:16:00,
2013-05-05 21:21:00,45.0,42.4,30.31,East,84,0.0,2.0,91,0.00,,,0.00,meteohub,2013-05-06 01:21:00,
2013-05-05 21:26:00,44.8,42.6,30.31,East,84,0.0,0.0,92,0.00,,,0.00,meteohub,2013-05-06 01:26:00,
2013-05-05 21:31:00,44.6,42.4,30.31,SSE,148,0.0,1.0,92,0.00,,,0.00,meteohub,2013-05-06 01:31:00,
2013-05-05 21:36:00,44.4,42.3,30.31,SE,127,0.0,1.0,92,0.00,,,0.00,meteohub,2013-05-06 01:36:00,
2013-05-05 21:41:00,44.4,42.4,30.31,East,88,0.0,1.0,93,0.00,,,0.00,meteohub,2013-05-06 01:41:00,
2013-05-05 21:46:00,44.4,42.4,30.31,East,96,0.0,1.0,93,0.00,,,0.00,meteohub,2013-05-06 01:46:00,
2013-05-05 21:51:00,44.2,42.3,30.31,SE,135,0.0,1.0,93,0.00,,,0.00,meteohub,2013-05-06 01:51:00,
2013-05-05 21:56:00,44.2,42.3,30.31,SE,135,0.0,1.0,93,0.00,,,0.00,meteohub,2013-05-06 01:56:00,
2013-05-05 22:01:00,44.1,42.1,30.31,SE,135,0.0,1.0,93,0.00,,,0.00,meteohub,2013-05-06 02:01:00,
2013-05-05 22:06:00,44.1,42.1,30.31,SE,132,0.0,2.0,93,0.00,,,0.00,meteohub,2013-05-06 02:06:00,
2013-05-05 22:11:00,43.9,42.3,30.31,East,94,2.0,2.0,94,0.00,,,0.00,meteohub,2013-05-06 02:11:00,
2013-05-05 22:16:00,43.9,42.3,30.31,SE,128,0.0,2.0,94,0.00,,,0.00,meteohub,2013-05-06 02:16:00,
2013-05-05 22:21:00,43.9,42.3,30.31,SE,131,0.0,2.0,94,0.00,,,0.00,meteohub,2013-05-06 02:21:00,
2013-05-05 22:26:00,43.9,42.3,30.31,SE,131,0.0,2.0,94,0.00,,,0.00,meteohub,2013-05-06 02:26:00,
2013-05-05 22:31:00,43.9,42.3,30.31,East,101,0.0,1.0,94,0.00,,,0.00,meteohub,2013-05-06 02:31:00,
2013-05-05 22:36:00,44.1,42.8,30.31,ENE,75,1.0,1.0,95,0.00,,,0.00,meteohub,2013-05-06 02:36:00,
2013-05-05 22:41:00,44.2,43.0,30.31,ENE,75,2.0,3.0,95,0.00,,,0.00,meteohub,2013-05-06 02:41:00,
2013-05-05 22:46:00,44.4,43.2,30.31,ENE,78,0.0,3.0,95,0.00,,,0.00,meteohub,2013-05-06 02:46:00,
2013-05-05 22:51:00,44.4,43.2,30.31,East,101,1.0,3.0,95,0.00,,,0.00,meteohub,2013-05-06 02:51:00,
2013-05-05 22:56:00,44.2,43.0,30.31,ESE,118,0.0,3.0,95,0.00,,,0.00,meteohub,2013-05-06 02:56:00,
2013-05-05 23:01:00,44.2,43.0,30.31,East,92,2.0,3.0,95,0.00,,,0.00,meteohub,2013-05-06 03:01:00,
2013-05-05 23:06:00,44.2,43.0,30.31,ESE,105,1.0,3.0,95,0.00,,,0.00,meteohub,2013-05-06 03:06:00,
2013-05-05 23:11:00,44.1,42.8,30.31,ESE,120,1.0,3.0,95,0.00,,,0.00,meteohub,2013-05-06 03:11:00,
2013-05-05 23:16:00,44.1,42.8,30.31,East,95,1.0,2.0,95,0.00,,,0.00,meteohub,2013-05-06 03:16:00,
2013-05-05 23:21:00,44.1,42.8,30.31,SE,140,0.0,2.0,95,0.00,,,0.00,meteohub,2013-05-06 03:21:00,
2013-05-05 23:26:00,44.2,43.0,30.31,ESE,113,0.0,2.0,95,0.00,,,0.00,meteohub,2013-05-06 03:26:00,
2013-05-05 23:31:00,44.4,43.2,30.30,ESE,113,0.0,2.0,95,0.00,,,0.00,meteohub,2013-05-06 03:31:00,
2013-05-05 23:36:00,44.4,43.2,30.31,SE,124,0.0,1.0,95,0.00,,,0.00,meteohub,2013-05-06 03:36:00,
2013-05-05 23:41:00,44.8,43.5,30.31,East,85,0.0,2.0,95,0.00,,,0.00,meteohub,2013-05-06 03:41:00,
2013-05-05 23:46:00,45.0,43.7,30.31,East,101,1.0,2.0,95,0.00,,,0.00,meteohub,2013-05-06 03:46:00,
2013-05-05 23:51:00,45.1,43.9,30.31,ESE,118,1.0,3.0,95,0.00,,,0.00,meteohub,2013-05-06 03:51:00,
2013-05-05 23:56:00,45.5,44.2,30.31,ESE,111,1.0,5.0,95,0.00,,,0.00,meteohub,2013-05-06 03:56:00,